Time;durP1;ratioP1;P1;durP2;ratioP2;P2;SDS_P1;SDS_P2;PMS_P1;PMS_P2;Temp;Humidity;BMP_temperature;BMP_pressure;BME280_temperature;BME280_humidity;BME280_pressure;Samples;Min_cycle;Max_cycle;Signal;HPM_P1;HPM_P2
2021/12/30 00:02:28;;;;;;;169.17;69.32;;;;;;;1.13;82.61;100631.23;1681282;84;21082;-83
2021/12/30 00:04:55;;;;;;;171.40;71.53;;;;;;;1.15;82.68;100627.44;1681284;84;21141;-82
2021/12/30 00:07:21;;;;;;;174.15;71.50;;;;;;;1.18;82.72;100622.83;1670907;85;21762;-82
2021/12/30 00:09:48;;;;;;;171.72;69.97;;;;;;;1.18;82.58;100621.53;1673842;85;21603;-82
2021/12/30 00:12:15;;;;;;;175.12;69.75;;;;;;;1.15;82.56;100627.02;1675173;85;21095;-82
2021/12/30 00:14:42;;;;;;;166.28;68.72;;;;;;;1.16;82.61;100624.02;1675419;85;21028;-83
2021/12/30 00:17:09;;;;;;;173.78;69.85;;;;;;;1.20;82.70;100629.00;1675702;85;21612;-83
2021/12/30 00:19:35;;;;;;;175.45;69.15;;;;;;;1.20;82.61;100630.29;1701835;84;21834;-84
2021/12/30 00:22:02;;;;;;;163.45;66.82;;;;;;;1.19;82.67;100624.22;1684887;83;21046;-84
2021/12/30 00:24:29;;;;;;;155.18;66.77;;;;;;;1.22;82.72;100623.13;1685157;85;21074;-83
2021/12/30 00:26:55;;;;;;;172.10;69.00;;;;;;;1.22;82.60;100624.42;1707386;82;21600;-81
2021/12/30 00:29:24;;;;;;;162.85;67.87;;;;;;;1.21;82.57;100620.02;1685428;84;21079;-82
2021/12/30 00:31:50;;;;;;;174.85;71.10;;;;;;;1.24;82.65;100617.63;1677687;85;21924;-82
2021/12/30 00:34:17;;;;;;;177.35;70.70;;;;;;;1.23;82.54;100604.15;1696320;84;21076;-82
2021/12/30 00:36:44;;;;;;;168.20;71.82;;;;;;;1.23;82.55;100608.04;1672431;84;21435;-81
2021/12/30 00:39:11;;;;;;;170.68;72.60;;;;;;;1.14;82.60;100598.00;1696677;84;21303;-81
2021/12/30 00:41:37;;;;;;;185.90;71.57;;;;;;;1.23;82.55;100623.59;1696614;83;21623;-82
2021/12/30 00:44:04;;;;;;;171.98;72.58;;;;;;;1.23;82.59;100635.27;1696571;82;21789;-82
2021/12/30 00:46:33;;;;;;;170.95;69.67;;;;;;;1.24;82.62;100629.66;1696364;83;21623;-81
2021/12/30 00:49:00;;;;;;;163.18;68.78;;;;;;;1.27;82.71;100637.23;1660973;85;21094;-82
2021/12/30 00:51:26;;;;;;;164.28;71.87;;;;;;;1.28;82.62;100632.97;1697100;83;21120;-81
2021/12/30 00:53:53;;;;;;;170.65;69.80;;;;;;;1.26;82.58;100638.43;1697206;84;21057;-81
2021/12/30 00:56:20;;;;;;;170.00;73.07;;;;;;;1.27;82.62;100639.83;1697338;83;21733;-82
2021/12/30 00:58:46;;;;;;;164.15;72.80;;;;;;;1.31;82.63;100649.98;1697298;82;21125;-81
2021/12/30 01:01:13;;;;;;;157.85;68.35;;;;;;;1.27;82.45;100650.61;1696936;83;21280;-84
2021/12/30 01:03:40;;;;;;;161.77;69.15;;;;;;;1.26;82.50;100652.31;1697432;84;21563;-82
2021/12/30 01:06:07;;;;;;;170.85;71.05;;;;;;;1.25;82.55;100651.81;1697396;83;21065;-84
2021/12/30 01:08:33;;;;;;;155.67;70.20;;;;;;;1.27;82.64;100656.68;1697590;83;21762;-82
2021/12/30 01:11:04;;;;;;;167.37;70.37;;;;;;;1.29;82.67;100657.66;1697055;82;21634;-82
2021/12/30 01:13:30;;;;;;;145.25;68.10;;;;;;;1.31;82.60;100660.36;1696596;82;21546;-83
2021/12/30 01:16:02;;;;;;;157.75;67.50;;;;;;;1.30;82.61;100656.88;1696943;84;21098;-82
2021/12/30 01:18:44;;;;;;;142.50;65.17;;;;;;;1.10;82.65;100618.47;1697434;84;21042;-84
2021/12/30 01:21:11;;;;;;;145.47;65.30;;;;;;;1.34;82.64;100660.55;1697067;84;21769;-84
2021/12/30 01:23:41;;;;;;;139.45;64.40;;;;;;;1.35;82.69;100659.73;1697367;84;21097;-85
2021/12/30 01:26:07;;;;;;;145.80;65.65;;;;;;;1.36;82.62;100663.72;1697484;84;21065;-84
2021/12/30 01:28:33;;;;;;;146.43;64.45;;;;;;;1.35;82.61;100659.36;1697363;82;21191;-84
2021/12/30 01:31:00;;;;;;;146.35;63.15;;;;;;;1.40;82.72;100654.43;1697281;82;21140;-84
2021/12/30 01:33:27;;;;;;;138.50;66.02;;;;;;;1.42;82.59;100653.23;1697597;83;21736;-84
2021/12/30 01:35:54;;;;;;;138.92;62.33;;;;;;;1.43;82.65;100653.74;1697223;84;21686;-84
2021/12/30 01:38:20;;;;;;;136.70;61.80;;;;;;;1.46;82.64;100655.20;1688596;82;21034;-86
2021/12/30 01:40:49;;;;;;;145.85;64.50;;;;;;;1.48;82.61;100647.11;1688135;83;21082;-84
2021/12/30 01:43:16;;;;;;;129.32;61.20;;;;;;;1.50;82.60;100651.98;1687964;84;21116;-84
2021/12/30 01:45:42;;;;;;;130.03;60.78;;;;;;;1.48;82.48;100646.73;1687960;83;22576;-84
2021/12/30 01:48:13;;;;;;;131.10;60.83;;;;;;;1.48;82.40;100641.92;1687927;82;21054;-84
2021/12/30 01:50:39;;;;;;;130.43;61.68;;;;;;;1.45;82.42;100648.23;1688423;84;21089;-84
2021/12/30 01:53:10;;;;;;;137.72;62.78;;;;;;;1.43;82.38;100646.84;1667675;84;21122;-85
2021/12/30 01:55:38;;;;;;;136.97;62.85;;;;;;;1.45;82.46;100649.53;1688370;82;21093;-84
2021/12/30 01:58:04;;;;;;;126.42;60.73;;;;;;;1.46;82.51;100647.42;1687717;85;21759;-83
2021/12/30 02:00:31;;;;;;;131.15;61.15;;;;;;;1.46;82.48;100644.83;1687500;85;21078;-83
2021/12/30 02:03:00;;;;;;;131.45;61.60;;;;;;;1.46;82.49;100642.23;1687086;84;21590;-82
2021/12/30 02:05:28;;;;;;;126.67;60.90;;;;;;;1.49;82.54;100655.39;1687399;83;21050;-82
2021/12/30 02:07:55;;;;;;;120.47;58.25;;;;;;;1.30;82.52;100626.17;1687558;85;21109;-83
2021/12/30 02:10:22;;;;;;;127.27;59.48;;;;;;;1.52;82.52;100656.86;1687699;82;21678;-82
2021/12/30 02:12:49;;;;;;;127.32;61.35;;;;;;;1.49;82.42;100657.98;1687654;82;21109;-83
2021/12/30 02:15:17;;;;;;;124.72;59.60;;;;;;;1.47;82.41;100666.97;1687723;85;21101;-82
2021/12/30 02:17:45;;;;;;;127.80;62.15;;;;;;;1.48;82.48;100666.56;1687840;83;21132;-83
2021/12/30 02:20:14;;;;;;;123.80;60.88;;;;;;;1.49;82.54;100669.25;1687598;84;21165;-83
2021/12/30 02:22:41;;;;;;;126.15;60.28;;;;;;;1.50;82.58;100675.33;1666870;85;23113;-82
2021/12/30 02:25:08;;;;;;;127.05;58.10;;;;;;;1.50;82.53;100671.06;1687615;85;21095;-82
2021/12/30 02:27:36;;;;;;;122.20;59.75;;;;;;;1.49;82.50;100673.55;1666520;85;21145;-83
2021/12/30 02:30:04;;;;;;;123.00;57.53;;;;;;;1.48;82.56;100673.97;1687796;84;21545;-82
2021/12/30 02:32:31;;;;;;;121.28;57.33;;;;;;;1.50;82.59;100674.03;1687794;82;21109;-83
2021/12/30 02:34:58;;;;;;;121.33;58.92;;;;;;;1.50;82.56;100666.25;1687687;85;21783;-83
2021/12/30 02:37:25;;;;;;;124.95;59.18;;;;;;;1.49;82.53;100655.39;1694334;83;21466;-82
2021/12/30 02:39:54;;;;;;;121.72;58.90;;;;;;;1.50;82.52;100661.06;1697959;84;21523;-82
2021/12/30 02:42:23;;;;;;;137.10;60.08;;;;;;;1.53;82.67;100662.55;1682670;84;21099;-82
2021/12/30 02:44:50;;;;;;;128.23;59.10;;;;;;;1.55;82.62;100654.45;1645361;85;21166;-82
2021/12/30 02:47:16;;;;;;;126.45;60.30;;;;;;;1.57;82.60;100656.73;1678766;85;21775;-82
2021/12/30 02:49:43;;;;;;;133.07;61.20;;;;;;;1.61;82.61;100660.41;1683224;85;21074;-84
2021/12/30 02:52:10;;;;;;;136.15;62.88;;;;;;;1.61;82.52;100666.48;1683269;85;21083;-84
2021/12/30 02:54:42;;;;;;;132.63;62.30;;;;;;;1.64;82.55;100655.00;1682785;85;21106;-82
2021/12/30 02:57:10;;;;;;;129.80;63.23;;;;;;;1.67;82.57;100650.00;1682804;85;21094;-82
2021/12/30 02:59:37;;;;;;;131.95;62.90;;;;;;;1.68;82.52;100646.59;1682883;85;21757;-83
2021/12/30 03:02:04;;;;;;;131.55;61.55;;;;;;;1.68;82.36;100647.88;1682993;85;21071;-84
2021/12/30 03:04:31;;;;;;;138.10;63.02;;;;;;;1.68;82.40;100647.00;1682900;85;21075;-83
2021/12/30 03:06:58;;;;;;;132.45;61.90;;;;;;;1.67;82.37;100651.30;1682869;85;21098;-83
2021/12/30 03:09:25;;;;;;;131.87;60.73;;;;;;;1.69;82.43;100656.55;1682714;85;21105;-83
2021/12/30 03:11:56;;;;;;;127.12;60.75;;;;;;;1.71;82.46;100658.45;1682854;85;21923;-82
2021/12/30 03:14:22;;;;;;;140.37;64.30;;;;;;;1.69;82.30;100665.64;1682154;85;21055;-82
2021/12/30 03:16:49;;;;;;;135.25;62.27;;;;;;;1.66;82.23;100673.27;1682600;85;21070;-84
2021/12/30 03:19:16;;;;;;;137.90;64.97;;;;;;;1.63;82.18;100668.77;1682427;85;21175;-83
2021/12/30 03:21:42;;;;;;;148.10;66.53;;;;;;;1.61;82.27;100668.19;1682639;85;21093;-83
2021/12/30 03:24:09;;;;;;;140.97;65.85;;;;;;;1.61;82.29;100678.16;1682678;85;21761;-82
2021/12/30 03:26:36;;;;;;;140.22;65.55;;;;;;;1.61;82.35;100679.87;1682885;85;21144;-82
2021/12/30 03:29:04;;;;;;;149.97;66.37;;;;;;;1.61;82.36;100683.76;1682802;85;21086;-83
2021/12/30 03:31:33;;;;;;;156.00;66.90;;;;;;;1.61;82.41;100685.05;1682509;85;21279;-83
2021/12/30 03:34:05;;;;;;;138.55;64.22;;;;;;;1.60;82.40;100674.20;1682670;85;21074;-83
2021/12/30 03:36:31;;;;;;;142.35;65.10;;;;;;;1.60;82.48;100679.39;1682630;84;22800;-83
2021/12/30 03:38:58;;;;;;;141.68;65.12;;;;;;;1.60;82.44;100671.20;1658787;85;21059;-82
2021/12/30 03:41:27;;;;;;;151.82;67.08;;;;;;;1.62;82.48;100664.81;1686935;84;21644;-84
2021/12/30 03:43:54;;;;;;;143.37;66.40;;;;;;;1.61;82.44;100661.30;1686886;84;21605;-84
2021/12/30 03:46:23;;;;;;;149.82;66.30;;;;;;;1.61;82.42;100662.59;1682565;85;21055;-85
2021/12/30 03:48:49;;;;;;;148.95;64.45;;;;;;;1.61;82.37;100662.59;1678245;85;21817;-85
2021/12/30 03:51:21;;;;;;;140.73;64.65;;;;;;;1.62;82.35;100665.70;1678533;85;21067;-84
2021/12/30 03:53:49;;;;;;;145.07;65.30;;;;;;;1.59;82.30;100671.10;1657101;85;21095;-84
2021/12/30 03:56:24;;;;;;;140.30;63.90;;;;;;;1.61;82.47;100668.19;1678618;84;21063;-85
2021/12/30 03:58:53;;;;;;;138.57;65.00;;;;;;;1.64;82.49;100669.69;1677511;84;21079;-84
2021/12/30 04:01:21;;;;;;;135.15;64.07;;;;;;;1.66;82.51;100666.77;1677298;83;21792;-84
2021/12/30 04:03:49;;;;;;;136.00;63.25;;;;;;;1.67;82.47;100673.36;1677616;85;21167;-84
2021/12/30 04:06:15;;;;;;;131.72;61.58;;;;;;;1.71;82.47;100693.90;1677076;84;21106;-83
2021/12/30 04:08:42;;;;;;;133.72;62.98;;;;;;;1.69;82.36;100696.77;1677554;85;21086;-84
2021/12/30 04:11:09;;;;;;;136.88;62.93;;;;;;;1.67;82.37;100686.33;1677184;85;21079;-84
2021/12/30 04:13:36;;;;;;;133.57;61.83;;;;;;;1.67;82.35;100688.92;1677093;85;21760;-84
2021/12/30 04:16:03;;;;;;;136.12;65.08;;;;;;;1.66;82.26;100691.02;1676852;85;21082;-82
2021/12/30 04:18:29;;;;;;;141.40;64.65;;;;;;;1.69;82.45;100683.42;1676755;84;21095;-83
2021/12/30 04:20:56;;;;;;;136.82;64.90;;;;;;;1.73;82.43;100684.50;1676909;84;21051;-83
2021/12/30 04:23:26;;;;;;;136.32;65.87;;;;;;;1.72;82.40;100671.91;1677111;85;21530;-84
2021/12/30 04:25:51;;;;;;;132.43;64.92;;;;;;;1.73;82.43;100665.92;1676190;84;21802;-83
2021/12/30 04:28:18;;;;;;;144.75;67.32;;;;;;;1.72;82.37;100675.80;1676499;85;21053;-80
2021/12/30 04:30:45;;;;;;;134.47;64.37;;;;;;;1.75;82.52;100678.59;1676597;84;21648;-80
2021/12/30 04:33:12;;;;;;;132.25;64.30;;;;;;;1.78;82.43;100682.16;1676595;84;21273;-80
2021/12/30 04:35:38;;;;;;;136.30;65.92;;;;;;;1.76;82.32;100691.16;1676209;84;21608;-80
2021/12/30 04:38:05;;;;;;;140.00;65.22;;;;;;;1.74;82.36;100692.77;1664294;85;21824;-82
2021/12/30 04:40:34;;;;;;;140.95;64.65;;;;;;;1.73;82.33;100693.17;1644567;87;21438;-81
2021/12/30 04:43:03;;;;;;;147.37;65.32;;;;;;;1.71;82.30;100693.90;1655354;86;21611;-81
2021/12/30 04:45:29;;;;;;;139.07;64.53;;;;;;;1.72;82.37;100698.27;1645856;86;21167;-81
2021/12/30 04:47:57;;;;;;;128.62;62.33;;;;;;;1.72;82.37;100702.16;1634414;85;36853;-82
2021/12/30 04:50:25;;;;;;;132.50;64.15;;;;;;;1.72;82.40;100703.45;1645925;87;22738;-80
2021/12/30 04:52:55;;;;;;;136.52;63.75;;;;;;;1.73;82.49;100703.55;1655145;86;21082;-81
2021/12/30 04:55:20;;;;;;;138.65;64.03;;;;;;;1.73;82.39;100694.88;1645243;87;21633;-80
2021/12/30 04:57:47;;;;;;;134.60;64.60;;;;;;;1.64;82.48;100658.01;1655262;85;21078;-81
2021/12/30 05:00:15;;;;;;;140.77;65.67;;;;;;;1.77;82.45;100677.80;1645475;86;21385;-80
2021/12/30 05:03:08;;;;;;;142.10;66.22;;;;;;;1.78;82.46;100675.27;1654443;86;21101;-81
2021/12/30 05:05:25;;;;;;;137.15;65.35;;;;;;;1.79;82.47;100685.27;1644631;85;21596;-79
2021/12/30 05:07:51;;;;;;;141.10;67.15;;;;;;;1.77;82.29;100686.47;1655391;86;21683;-78
2021/12/30 05:10:18;;;;;;;134.00;63.48;;;;;;;1.77;82.42;100686.88;1645961;86;21624;-78
2021/12/30 05:12:45;;;;;;;144.95;65.40;;;;;;;1.78;82.41;100690.84;1654954;86;21261;-77
2021/12/30 05:15:12;;;;;;;135.10;64.90;;;;;;;1.81;82.39;100687.55;1647699;87;21320;-79
2021/12/30 05:17:40;;;;;;;128.30;63.00;;;;;;;1.82;82.49;100676.34;1654901;85;21069;-79
2021/12/30 05:20:08;;;;;;;125.92;61.58;;;;;;;1.83;82.44;100672.55;1645789;85;21103;-79
2021/12/30 05:22:37;;;;;;;135.90;64.82;;;;;;;1.82;82.33;100671.16;1632356;86;21097;-79
2021/12/30 05:25:04;;;;;;;138.62;64.00;;;;;;;1.83;82.44;100676.85;1648207;85;21232;-79
2021/12/30 05:27:31;;;;;;;135.43;63.85;;;;;;;1.83;82.35;100682.04;1655836;86;21922;-80
2021/12/30 05:29:58;;;;;;;133.20;64.95;;;;;;;1.80;82.30;100662.39;1645632;87;21110;-80
2021/12/30 05:32:24;;;;;;;145.82;65.65;;;;;;;1.83;82.43;100661.28;1655085;86;21214;-81
2021/12/30 05:34:51;;;;;;;136.30;62.73;;;;;;;1.82;82.38;100668.18;1646030;86;21099;-80
2021/12/30 05:37:18;;;;;;;135.22;64.85;;;;;;;1.83;82.35;100669.06;1655227;86;21686;-81
2021/12/30 05:39:44;;;;;;;140.28;66.30;;;;;;;1.81;82.36;100663.78;1645627;86;21772;-81
2021/12/30 05:42:11;;;;;;;140.77;65.30;;;;;;;1.83;82.44;100666.06;1645849;87;21095;-82
2021/12/30 05:44:38;;;;;;;140.28;65.55;;;;;;;1.84;82.40;100677.33;1645688;87;21114;-81
2021/12/30 05:47:05;;;;;;;148.25;68.78;;;;;;;1.82;82.32;100672.08;1628303;87;21118;-80
2021/12/30 05:49:31;;;;;;;154.45;70.22;;;;;;;1.82;82.40;100659.48;1629266;86;21176;-78
2021/12/30 05:51:58;;;;;;;156.65;72.03;;;;;;;1.81;82.40;100665.08;1597644;88;21260;-80
2021/12/30 05:54:27;;;;;;;158.90;73.02;;;;;;;1.80;82.33;100675.36;1632540;86;21107;-80
2021/12/30 05:56:53;;;;;;;172.72;76.07;;;;;;;1.78;82.41;100668.78;1630559;86;21116;-80
2021/12/30 05:59:20;;;;;;;199.45;86.45;;;;;;;1.79;82.48;100664.09;1625635;86;21132;-80
2021/12/30 06:01:47;;;;;;;198.57;90.83;;;;;;;1.78;82.41;100666.18;1625686;86;21167;-81
2021/12/30 06:04:14;;;;;;;208.90;99.47;;;;;;;1.78;82.44;100679.56;1625853;86;21816;-80
2021/12/30 06:06:42;;;;;;;219.32;99.90;;;;;;;1.78;82.51;100684.34;1625452;86;21619;-81
2021/12/30 06:09:09;;;;;;;211.75;99.97;;;;;;;1.77;82.47;100683.88;1628828;86;21092;-79
2021/12/30 06:11:35;;;;;;;207.35;98.80;;;;;;;1.79;82.47;100683.97;1625833;86;21091;-80
2021/12/30 06:14:02;;;;;;;212.88;98.67;;;;;;;1.78;82.43;100678.27;1625765;86;21100;-80
2021/12/30 06:16:29;;;;;;;191.57;91.82;;;;;;;1.80;82.55;100687.04;1625936;86;21771;-81
2021/12/30 06:18:57;;;;;;;181.35;89.42;;;;;;;1.83;82.58;100702.80;1603197;87;21123;-80
2021/12/30 06:21:24;;;;;;;175.90;84.67;;;;;;;1.84;82.58;100700.30;1628536;86;21566;-80
2021/12/30 06:23:50;;;;;;;160.00;77.85;;;;;;;1.84;82.58;100704.20;1626065;87;21109;-81
2021/12/30 06:26:17;;;;;;;145.28;72.90;;;;;;;1.86;82.58;100707.78;1638632;86;21121;-80
2021/12/30 06:28:44;;;;;;;148.50;73.65;;;;;;;1.88;82.63;100713.95;1656086;86;22567;-80
2021/12/30 06:31:12;;;;;;;130.30;64.85;;;;;;;1.90;82.62;100710.16;1633851;86;21102;-81
2021/12/30 06:33:39;;;;;;;138.15;65.80;;;;;;;1.90;82.53;100698.06;1659325;86;21082;-82
2021/12/30 06:36:06;;;;;;;122.47;63.80;;;;;;;1.92;82.61;100706.83;1657986;85;21110;-81
2021/12/30 06:38:33;;;;;;;119.50;61.77;;;;;;;1.94;82.60;100706.92;1655443;86;21662;-80
2021/12/30 06:41:07;;;;;;;99.05;52.60;;;;;;;1.96;82.69;100705.31;1633877;86;21154;-83
2021/12/30 06:43:30;;;;;;;153.07;80.07;;;;;;;1.95;82.59;100712.59;1652993;86;21165;-80
2021/12/30 06:45:57;;;;;;;146.90;76.42;;;;;;;1.99;82.77;100713.30;1654284;86;21083;-81
2021/12/30 06:48:23;;;;;;;98.52;50.83;;;;;;;2.02;82.82;100713.45;1654483;86;21086;-81
2021/12/30 06:50:53;;;;;;;79.22;43.40;;;;;;;2.04;82.80;100717.44;1654053;85;21130;-82
2021/12/30 06:53:22;;;;;;;73.17;39.48;;;;;;;2.05;82.82;100721.43;1654241;85;21787;-80
2021/12/30 06:55:48;;;;;;;75.55;40.08;;;;;;;2.08;82.89;100715.51;1665893;85;21094;-80
2021/12/30 06:58:15;;;;;;;70.92;38.33;;;;;;;2.13;83.00;100710.19;1665858;86;21106;-81
2021/12/30 07:00:45;;;;;;;70.92;37.58;;;;;;;2.08;83.00;100709.94;1654912;86;21086;-87
2021/12/30 07:03:11;;;;;;;71.42;38.90;;;;;;;2.20;82.96;100735.72;1654518;85;21139;-84
2021/12/30 07:05:38;;;;;;;68.10;37.75;;;;;;;2.24;82.93;100749.78;1654305;86;22615;-82
2021/12/30 07:08:05;;;;;;;69.17;37.23;;;;;;;2.23;82.91;100742.36;1654807;86;21395;-82
2021/12/30 07:10:34;;;;;;;66.62;37.53;;;;;;;2.26;82.91;100745.56;1646731;86;21114;-81
2021/12/30 07:13:02;;;;;;;72.70;38.78;;;;;;;2.26;82.91;100741.26;1629986;87;21083;-81
2021/12/30 07:15:29;;;;;;;70.75;40.52;;;;;;;2.27;82.86;100740.47;1655592;86;21094;-81
2021/12/30 07:17:55;;;;;;;75.28;39.30;;;;;;;2.29;82.90;100738.84;1653022;86;21763;-82
2021/12/30 07:20:22;;;;;;;64.12;35.48;;;;;;;2.31;82.94;100737.23;1632469;87;21106;-84
2021/12/30 07:22:49;;;;;;;67.42;36.03;;;;;;;2.36;82.95;100740.08;1655674;85;21162;-85
2021/12/30 07:25:20;;;;;;;75.65;39.35;;;;;;;2.37;82.87;100736.69;1617041;86;21095;-82
2021/12/30 07:27:55;;;;;;;71.53;39.90;;;;;;;2.42;82.91;100736.94;1601856;88;21744;-80
2021/12/30 07:30:23;;;;;;;84.13;44.60;;;;;;;2.42;82.83;100742.14;1609755;87;21177;-81
2021/12/30 07:32:50;;;;;;;106.25;53.30;;;;;;;2.42;82.85;100756.42;1606868;87;21108;-81
2021/12/30 07:35:19;;;;;;;100.00;49.67;;;;;;;2.44;82.82;100760.92;1606618;89;21127;-81
2021/12/30 07:37:48;;;;;;;97.80;53.00;;;;;;;2.45;82.82;100761.39;1595872;88;21090;-80
2021/12/30 07:40:18;;;;;;;90.85;47.43;;;;;;;2.43;82.73;100764.73;1640584;86;21086;-80
2021/12/30 07:42:46;;;;;;;89.42;46.60;;;;;;;2.35;82.75;100751.30;1643303;87;22641;-80
2021/12/30 07:45:12;;;;;;;88.95;46.70;;;;;;;2.46;82.86;100762.28;1642887;85;21157;-80
2021/12/30 07:47:40;;;;;;;97.37;52.00;;;;;;;2.46;82.80;100755.79;1642702;85;21115;-80
2021/12/30 07:50:09;;;;;;;98.67;54.20;;;;;;;2.44;82.84;100747.02;1642562;87;21577;-81
2021/12/30 07:52:37;;;;;;;111.22;54.33;;;;;;;2.49;82.79;100756.86;1643404;87;21099;-90
2021/12/30 07:55:08;;;;;;;124.75;69.17;;;;;;;2.49;82.72;100761.17;1644361;87;22522;-91
2021/12/30 07:57:35;;;;;;;116.37;62.38;;;;;;;2.51;82.70;100760.85;1643729;85;21096;-78
2021/12/30 08:00:04;;;;;;;118.35;65.17;;;;;;;2.53;82.72;100764.44;1642727;87;21083;-84
2021/12/30 08:02:30;;;;;;;133.78;75.00;;;;;;;2.58;82.81;100764.72;1642781;87;21056;-82
2021/12/30 08:04:57;;;;;;;319.27;196.50;;;;;;;2.62;82.75;100760.17;1643188;85;21072;-81
2021/12/30 08:07:24;;;;;;;103.83;59.08;;;;;;;2.66;82.82;100742.23;1624071;87;22573;-81
2021/12/30 08:09:51;;;;;;;104.35;56.65;;;;;;;2.71;82.73;100740.80;1620632;88;21079;-81
2021/12/30 08:12:18;;;;;;;108.12;55.67;;;;;;;2.74;82.67;100740.09;1611098;88;21690;-81
2021/12/30 08:14:44;;;;;;;102.47;53.58;;;;;;;2.79;82.68;100737.32;1617651;88;21098;-81
2021/12/30 08:17:11;;;;;;;104.67;54.65;;;;;;;2.85;82.69;100733.79;1629787;87;21105;-81
2021/12/30 08:19:38;;;;;;;101.58;53.05;;;;;;;2.92;82.74;100732.41;1629991;86;21771;-81
2021/12/30 08:22:04;;;;;;;100.33;53.08;;;;;;;2.98;82.68;100722.34;1629752;87;21094;-79
2021/12/30 08:24:31;;;;;;;100.27;52.62;;;;;;;2.85;82.54;100697.77;1630049;86;21162;-77
2021/12/30 08:27:02;;;;;;;104.50;53.28;;;;;;;3.05;82.56;100717.08;1630035;86;21078;-76
2021/12/30 08:29:27;;;;;;;105.03;56.65;;;;;;;3.07;82.42;100722.84;1629471;86;21126;-77
2021/12/30 08:31:53;;;;;;;103.40;55.73;;;;;;;3.09;82.42;100717.31;1630317;86;21744;-77
2021/12/30 08:34:22;;;;;;;107.65;57.00;;;;;;;3.11;82.23;100717.41;1630315;87;21098;-78
2021/12/30 08:36:48;;;;;;;102.65;55.55;;;;;;;3.13;82.31;100716.19;1630185;86;21102;-78
2021/12/30 08:39:15;;;;;;;105.17;54.45;;;;;;;3.15;82.24;100718.47;1638545;84;21067;-78
2021/12/30 08:41:42;;;;;;;110.97;59.88;;;;;;;3.19;82.28;100721.34;1665223;85;21207;-78
2021/12/30 08:44:08;;;;;;;109.03;63.13;;;;;;;3.22;82.22;100719.29;1626572;86;22683;-78
2021/12/30 08:46:35;;;;;;;107.78;56.40;;;;;;;3.30;82.23;100715.38;1653102;86;21047;-77
2021/12/30 08:49:02;;;;;;;98.67;56.10;;;;;;;3.44;82.42;100718.33;1653103;85;21091;-77
2021/12/30 08:51:30;;;;;;;111.10;62.00;;;;;;;3.53;82.37;100711.80;1653159;85;21044;-78
2021/12/30 08:53:56;;;;;;;106.07;57.33;;;;;;;3.64;82.15;100710.28;1652974;85;21075;-76
2021/12/30 08:56:23;;;;;;;95.62;54.98;;;;;;;3.71;82.06;100706.27;1653154;86;21896;-76
2021/12/30 08:58:50;;;;;;;99.58;55.88;;;;;;;3.78;81.94;100700.98;1653040;85;21079;-78
2021/12/30 09:01:16;;;;;;;105.03;54.88;;;;;;;3.83;81.79;100697.80;1653104;86;21059;-78
2021/12/30 09:03:43;;;;;;;103.15;55.78;;;;;;;3.85;81.62;100693.56;1653047;85;21059;-79
2021/12/30 09:06:09;;;;;;;107.35;55.80;;;;;;;3.83;81.43;100690.37;1653098;86;21087;-78
2021/12/30 09:08:36;;;;;;;103.12;54.50;;;;;;;3.80;81.35;100692.84;1653196;86;22507;-78
2021/12/30 09:11:03;;;;;;;105.72;55.95;;;;;;;3.79;81.37;100687.13;1664867;85;21073;-78
2021/12/30 09:13:29;;;;;;;107.32;57.17;;;;;;;3.81;81.27;100688.09;1653230;86;21036;-79
2021/12/30 09:15:56;;;;;;;106.55;55.75;;;;;;;3.80;81.16;100691.53;1653018;85;21164;-78
2021/12/30 09:18:24;;;;;;;106.75;58.15;;;;;;;3.75;81.03;100689.98;1653244;86;21079;-78
2021/12/30 09:20:50;;;;;;;121.30;58.98;;;;;;;3.73;81.05;100694.63;1653349;85;21779;-79
2021/12/30 09:23:17;;;;;;;111.80;59.33;;;;;;;3.69;81.16;100689.25;1637724;86;21686;-78
2021/12/30 09:25:44;;;;;;;113.25;59.13;;;;;;;3.74;81.22;100693.42;1634492;86;21103;-83
2021/12/30 09:28:14;;;;;;;108.47;58.38;;;;;;;3.75;81.11;100685.19;1617283;88;21569;-83
2021/12/30 09:30:45;;;;;;;101.07;55.08;;;;;;;3.74;81.07;100685.61;1616454;88;21435;-83
2021/12/30 09:33:15;;;;;;;110.85;57.80;;;;;;;3.75;81.06;100682.59;1616354;87;21769;-82
2021/12/30 09:35:39;;;;;;;167.13;96.20;;;;;;;3.74;81.06;100686.91;1616027;87;21060;-81
2021/12/30 09:38:05;;;;;;;115.50;64.42;;;;;;;3.77;81.11;100682.25;1616506;87;21645;-82
2021/12/30 09:40:32;;;;;;;118.42;63.02;;;;;;;3.82;81.20;100676.88;1609432;87;21522;-86
2021/12/30 09:43:04;;;;;;;107.80;57.33;;;;;;;3.88;81.15;100670.67;1607716;87;21686;-85
2021/12/30 09:45:32;;;;;;;103.83;55.65;;;;;;;3.92;81.09;100667.41;1607897;87;21801;-83
2021/12/30 09:48:00;;;;;;;108.65;55.20;;;;;;;3.99;81.13;100672.11;1607523;87;21193;-80
2021/12/30 09:50:31;;;;;;;100.12;53.45;;;;;;;4.05;81.05;100683.24;1607663;87;22118;-82
2021/12/30 09:52:58;;;;;;;102.10;57.65;;;;;;;4.07;80.89;100679.00;1607463;87;21113;-81
2021/12/30 09:55:25;;;;;;;101.65;56.15;;;;;;;4.09;80.86;100678.28;1615343;87;21332;-86
2021/12/30 09:57:53;;;;;;;98.10;51.70;;;;;;;4.08;80.69;100672.98;1690365;83;21740;-81
2021/12/30 10:00:20;;;;;;;93.62;53.05;;;;;;;4.09;80.79;100675.67;1686709;85;21129;-79
2021/12/30 10:02:46;;;;;;;95.17;52.30;;;;;;;4.14;80.78;100673.28;1686381;84;21409;-78
2021/12/30 10:05:23;;;;;;;87.30;51.23;;;;;;;4.17;80.67;100672.56;1652796;86;21142;-77
2021/12/30 10:07:49;;;;;;;92.33;51.40;;;;;;;4.20;80.66;100665.77;1648173;86;21365;-80
2021/12/30 10:10:33;;;;;;;95.80;54.13;;;;;;;4.27;80.70;100669.58;1643228;86;21758;-80
2021/12/30 10:13:01;;;;;;;91.17;51.83;;;;;;;4.33;80.64;100672.89;1641725;87;25349;-78
2021/12/30 10:15:32;;;;;;;94.83;52.70;;;;;;;4.41;80.65;100668.93;1628563;87;21070;-82
2021/12/30 10:17:59;;;;;;;100.47;52.48;;;;;;;4.48;80.55;100661.48;1641898;87;21863;-81
2021/12/30 10:20:30;;;;;;;92.55;52.03;;;;;;;4.55;80.48;100660.49;1643678;87;21576;-81
2021/12/30 10:23:16;;;;;;;97.22;52.05;;;;;;;4.56;80.19;100658.35;1635920;87;22895;-84
2021/12/30 10:25:52;;;;;;;97.62;54.42;;;;;;;4.58;80.22;100655.41;1646644;85;21094;-76
2021/12/30 10:28:27;;;;;;;92.60;51.10;;;;;;;4.63;80.21;100665.65;1640646;87;21106;-80
2021/12/30 10:30:57;;;;;;;103.25;57.95;;;;;;;4.62;79.94;100669.09;1642710;87;21078;-80
2021/12/30 10:33:29;;;;;;;97.20;54.75;;;;;;;4.61;79.93;100665.98;1650061;86;21196;-79
2021/12/30 10:35:56;;;;;;;112.37;63.23;;;;;;;4.60;79.94;100666.41;1597083;87;22388;-79
2021/12/30 10:38:23;;;;;;;93.10;52.17;;;;;;;4.63;79.96;100654.80;1640453;87;21072;-79
2021/12/30 10:40:52;;;;;;;95.20;51.30;;;;;;;4.68;79.96;100651.13;1622455;86;21071;-80
2021/12/30 10:43:33;;;;;;;88.35;49.95;;;;;;;4.66;79.68;100652.34;1649667;85;21086;-80
2021/12/30 10:46:10;;;;;;;91.60;50.55;;;;;;;4.63;79.71;100645.67;1635961;85;21226;-82
2021/12/30 10:49:10;;;;;;;95.50;52.15;;;;;;;4.70;79.91;100641.66;1686385;84;21794;-79
2021/12/30 10:51:46;;;;;;;84.35;45.33;;;;;;;4.79;79.96;100634.27;1686563;85;21109;-80
2021/12/30 10:54:23;;;;;;;94.40;50.75;;;;;;;4.90;80.00;100635.16;1686028;83;21759;-80
2021/12/30 10:56:59;;;;;;;93.20;50.55;;;;;;;4.98;79.96;100625.98;1686614;85;21101;-80
2021/12/30 10:59:44;;;;;;;99.28;53.28;;;;;;;5.02;79.77;100620.08;1686604;85;21612;-80
2021/12/30 11:02:20;;;;;;;95.67;51.85;;;;;;;4.98;79.38;100619.46;1686380;85;22606;-80
2021/12/30 11:04:56;;;;;;;91.42;49.73;;;;;;;4.89;79.27;100619.05;1686135;83;21353;-80
2021/12/30 11:07:48;;;;;;;90.75;48.80;;;;;;;4.78;79.18;100624.64;1686030;85;21117;-80
2021/12/30 11:10:16;;;;;;;82.70;46.02;;;;;;;4.71;79.26;100625.59;1689388;83;21070;-80
2021/12/30 11:12:46;;;;;;;85.77;49.08;;;;;;;4.61;79.19;100628.19;1686395;85;21086;-80
2021/12/30 11:15:30;;;;;;;88.15;47.20;;;;;;;4.55;79.22;100636.61;1686283;85;21144;-79
2021/12/30 11:18:08;;;;;;;;;;;;;;;4.50;79.34;100634.19;1689135;82;21070;-80